Time;durP1;ratioP1;P1;durP2;ratioP2;P2;SDS_P1;SDS_P2;PMS_P1;PMS_P2;Temp;Humidity;BMP_temperature;BMP_pressure;BME280_temperature;BME280_humidity;BME280_pressure;Samples;Min_cycle;Max_cycle;Signal;HPM_P1;HPM_P2
2023/04/13 00:00:13;;;;;;;2.83;1.30;;;7.50;81.40;;;;;;9176342;19;20014;-69
2023/04/13 00:03:19;;;;;;;2.42;1.20;;;7.50;81.60;;;;;;9173944;19;20026;-68
2023/04/13 00:06:23;;;;;;;5.63;1.20;;;7.50;82.50;;;;;;9174769;19;20108;-68
2023/04/13 00:09:30;;;;;;;3.53;1.42;;;7.50;82.20;;;;;;9176116;19;20021;-69
2023/04/13 00:12:36;;;;;;;3.53;1.05;;;7.60;82.70;;;;;;9171534;19;20018;-69
2023/04/13 00:15:43;;;;;;;8.27;1.38;;;7.60;83.50;;;;;;9167200;19;20026;-68
2023/04/13 00:18:47;;;;;;;3.28;1.38;;;7.60;83.80;;;;;;9174620;19;20011;-68
2023/04/13 00:21:53;;;;;;;3.88;1.20;;;7.70;84.80;;;;;;9174500;19;20013;-67
2023/04/13 00:24:58;;;;;;;2.90;1.17;;;7.70;86.30;;;;;;9175186;19;20025;-67
2023/04/13 00:28:07;;;;;;;2.22;1.10;;;7.60;99.60;;;;;;9174124;19;20014;-68
2023/04/13 00:31:11;;;;;;;5.13;1.42;;;7.70;83.40;;;;;;9174014;19;20022;-67
2023/04/13 00:34:24;;;;;;;8.13;2.08;;;7.70;82.20;;;;;;9171702;19;20052;-67
2023/04/13 00:37:31;;;;;;;5.90;1.30;;;7.70;82.00;;;;;;9173546;19;20492;-67
2023/04/13 00:40:38;;;;;;;10.15;1.30;;;7.70;81.70;;;;;;9174515;19;20516;-67
2023/04/13 00:43:44;;;;;;;4.63;1.20;;;7.70;81.40;;;;;;9173908;19;20030;-67
2023/04/13 00:46:53;;;;;;;2.75;1.17;;;7.80;81.30;;;;;;9178414;19;20015;-66
2023/04/13 00:49:58;;;;;;;4.65;1.42;;;7.80;81.20;;;;;;9182408;19;20011;-68
2023/04/13 00:53:05;;;;;;;2.85;1.08;;;7.70;80.80;;;;;;9180216;19;20768;-67
2023/04/13 00:56:14;;;;;;;2.25;1.30;;;7.70;80.80;;;;;;9179592;19;20086;-67
2023/04/13 00:59:24;;;;;;;5.40;1.55;;;7.70;80.70;;;;;;9180561;19;20710;-67
2023/04/13 01:02:29;;;;;;;5.80;2.17;;;7.70;80.60;;;;;;9181271;19;20460;-68
2023/04/13 01:05:50;;;;;;;2.72;1.02;;;7.70;80.60;;;;;;9179692;19;20107;-67
2023/04/13 01:09:02;;;;;;;4.13;1.50;;;7.70;80.30;;;;;;9178554;19;20051;-67
2023/04/13 01:12:14;;;;;;;5.30;1.27;;;7.70;80.70;;;;;;9179737;19;20011;-67
2023/04/13 01:15:22;;;;;;;3.47;1.00;;;7.70;80.60;;;;;;9173931;19;20021;-67
2023/04/13 01:18:29;;;;;;;2.75;1.02;;;7.70;80.80;;;;;;9180492;19;20029;-67
2023/04/13 01:21:35;;;;;;;5.55;0.95;;;7.70;81.00;;;;;;9179480;19;20082;-67
2023/04/13 01:24:52;;;;;;;2.33;1.30;;;7.70;80.90;;;;;;9179260;19;20007;-66
2023/04/13 01:28:02;;;;;;;2.17;0.77;;;7.60;80.50;;;;;;9181345;19;20011;-66
2023/04/13 01:31:10;;;;;;;3.15;1.05;;;7.70;80.70;;;;;;9178549;19;20525;-67
2023/04/13 01:34:16;;;;;;;2.03;0.75;;;7.70;80.90;;;;;;9179668;19;20126;-66
2023/04/13 01:37:24;;;;;;;1.77;1.10;;;7.70;81.20;;;;;;9179740;19;20025;-66
2023/04/13 01:40:33;;;;;;;1.15;0.77;;;7.70;81.00;;;;;;9177703;19;20586;-67
2023/04/13 01:43:41;;;;;;;1.95;0.93;;;7.70;80.90;;;;;;9179780;19;20021;-66
2023/04/13 01:46:49;;;;;;;4.82;1.10;;;7.70;81.20;;;;;;9179468;19;20388;-67
2023/04/13 01:50:29;;;;;;;2.72;0.80;;;7.60;81.10;;;;;;9178344;19;20586;-66
2023/04/13 01:53:54;;;;;;;2.35;1.25;;;7.60;80.80;;;;;;9177838;19;20023;-68
2023/04/13 01:57:02;;;;;;;0.98;0.68;;;7.70;80.70;;;;;;9173620;19;20007;-66
2023/04/13 02:00:13;;;;;;;2.15;1.10;;;7.60;80.80;;;;;;9179241;19;20022;-67
2023/04/13 02:03:21;;;;;;;2.22;0.90;;;7.70;80.70;;;;;;9176008;19;20482;-67
2023/04/13 02:06:25;;;;;;;2.05;1.17;;;7.60;80.40;;;;;;9179774;19;20491;-67
2023/04/13 02:09:32;;;;;;;4.22;0.60;;;7.60;80.20;;;;;;9177860;19;20021;-67
2023/04/13 02:12:36;;;;;;;5.50;1.05;;;7.60;80.40;;;;;;9176244;19;20016;-67
2023/04/13 02:15:47;;;;;;;1.27;0.63;;;7.70;81.10;;;;;;9171505;19;20011;-67
2023/04/13 02:18:51;;;;;;;4.30;1.42;;;7.60;80.80;;;;;;9178926;19;20395;-66
2023/04/13 02:21:57;;;;;;;3.88;0.90;;;7.60;80.40;;;;;;9177238;19;20018;-68
2023/04/13 02:25:00;;;;;;;;;;;7.60;80.50;;;;;;9179621;19;20014;-67
2023/04/13 02:28:07;;;;;;;5.05;1.10;;;7.60;80.50;;;;;;9176784;19;19910;-67
2023/04/13 02:31:15;;;;;;;5.13;1.55;;;7.60;80.70;;;;;;9178424;19;20018;-66
2023/04/13 02:34:22;;;;;;;2.75;0.85;;;7.60;80.40;;;;;;9177584;19;20017;-67
2023/04/13 02:37:26;;;;;;;3.78;1.40;;;7.60;80.30;;;;;;9173190;19;20628;-67
2023/04/13 02:40:33;;;;;;;9.27;1.67;;;7.60;80.40;;;;;;9175143;19;20021;-67
2023/04/13 02:43:37;;;;;;;4.35;0.90;;;7.60;80.20;;;;;;9176260;19;20452;-67
2023/04/13 02:46:45;;;;;;;3.78;1.00;;;7.60;80.30;;;;;;9176638;19;20476;-66
2023/04/13 02:49:53;;;;;;;3.28;0.95;;;7.60;80.50;;;;;;9175518;19;20507;-67
2023/04/13 02:53:06;;;;;;;2.75;0.75;;;7.60;80.00;;;;;;9176084;19;20018;-67
2023/04/13 02:56:13;;;;;;;5.03;1.10;;;7.60;80.20;;;;;;9175804;19;20479;-67
2023/04/13 02:59:19;;;;;;;1.25;1.00;;;7.60;80.40;;;;;;9174201;19;20491;-67
2023/04/13 03:02:25;;;;;;;;;;;7.60;80.40;;;;;;9177261;19;20018;-67
2023/04/13 03:05:32;;;;;;;2.63;1.08;;;7.60;80.40;;;;;;9177285;19;19910;-67
2023/04/13 03:08:36;;;;;;;4.05;1.20;;;7.60;80.10;;;;;;9174630;19;20049;-67
2023/04/13 03:12:01;;;;;;;12.20;1.20;;;7.60;80.20;;;;;;9173878;19;20498;-66
2023/04/13 03:15:09;;;;;;;9.50;1.30;;;7.60;80.50;;;;;;9171803;19;20022;-67
2023/04/13 03:18:18;;;;;;;3.03;1.00;;;7.70;80.70;;;;;;9175162;19;20033;-67
2023/04/13 03:21:23;;;;;;;2.67;0.80;;;7.60;80.50;;;;;;9175176;19;20052;-67
2023/04/13 03:24:43;;;;;;;2.80;0.90;;;7.60;80.30;;;;;;9175482;19;20022;-67
2023/04/13 03:27:53;;;;;;;2.70;0.90;;;7.70;80.60;;;;;;9175177;19;20014;-67
2023/04/13 03:31:01;;;;;;;4.65;1.13;;;7.70;80.80;;;;;;9174306;19;20014;-67
2023/04/13 03:34:10;;;;;;;8.02;1.35;;;7.70;80.40;;;;;;9174347;19;20534;-67
2023/04/13 03:37:17;;;;;;;3.08;1.25;;;7.70;80.50;;;;;;9170972;19;20018;-67
2023/04/13 03:40:21;;;;;;;6.38;1.40;;;7.70;80.70;;;;;;9175370;19;20054;-68
2023/04/13 03:43:30;;;;;;;1.42;0.75;;;7.70;81.10;;;;;;9174861;19;20014;-68
2023/04/13 03:46:40;;;;;;;2.95;1.10;;;7.70;81.40;;;;;;9174507;19;20026;-67
2023/04/13 03:50:00;;;;;;;4.15;1.30;;;7.70;81.50;;;;;;9174275;19;20037;-67
2023/04/13 03:53:06;;;;;;;1.35;0.98;;;7.70;81.20;;;;;;9173907;19;20026;-68
2023/04/13 03:56:13;;;;;;;2.15;1.10;;;7.70;82.10;;;;;;9172725;19;20006;-67
2023/04/13 03:59:17;;;;;;;1.65;0.88;;;7.80;82.30;;;;;;9174163;19;20022;-67
2023/04/13 04:02:23;;;;;;;2.08;0.70;;;7.80;82.10;;;;;;9175807;19;20029;-67
2023/04/13 04:05:29;;;;;;;5.75;1.38;;;7.80;81.70;;;;;;9174594;19;20026;-68
2023/04/13 04:08:40;;;;;;;2.03;1.02;;;7.80;82.00;;;;;;9174065;19;20018;-68
2023/04/13 04:11:55;;;;;;;4.32;1.25;;;7.80;82.10;;;;;;9172894;19;20086;-67
2023/04/13 04:15:13;;;;;;;2.92;0.98;;;7.80;81.90;;;;;;9167945;19;20360;-67
2023/04/13 04:18:18;;;;;;;3.25;1.02;;;7.80;82.10;;;;;;9172813;19;20018;-67
2023/04/13 04:21:33;;;;;;;3.75;1.00;;;7.80;82.40;;;;;;9176459;19;20010;-67
2023/04/13 04:24:41;;;;;;;3.35;1.40;;;7.90;82.30;;;;;;9182123;19;20021;-67
2023/04/13 04:27:48;;;;;;;3.38;1.23;;;7.90;82.40;;;;;;9182294;19;20010;-67
2023/04/13 04:30:54;;;;;;;3.40;1.60;;;7.80;82.60;;;;;;9182475;19;20032;-67
2023/04/13 04:34:02;;;;;;;6.70;1.38;;;7.90;82.30;;;;;;9180680;19;20880;-67
2023/04/13 04:37:12;;;;;;;3.55;1.40;;;7.90;82.30;;;;;;9178351;19;20383;-68
2023/04/13 04:40:36;;;;;;;2.45;1.60;;;7.90;82.30;;;;;;9181199;19;20014;-67
2023/04/13 04:43:45;;;;;;;3.97;1.83;;;7.90;82.20;;;;;;9180688;19;20337;-67
2023/04/13 04:46:52;;;;;;;7.88;1.55;;;7.90;82.40;;;;;;9179858;19;20014;-67
2023/04/13 04:49:57;;;;;;;4.43;1.42;;;7.90;82.40;;;;;;9181367;19;20014;-68
2023/04/13 04:53:05;;;;;;;4.25;1.80;;;8.00;82.20;;;;;;9177627;19;20023;-68
2023/04/13 04:56:10;;;;;;;6.10;1.35;;;7.80;81.80;;;;;;9178376;19;20130;-66
2023/04/13 04:59:23;;;;;;;4.15;1.95;;;7.80;81.80;;;;;;9177239;19;20741;-67
2023/04/13 05:02:34;;;;;;;2.83;1.77;;;7.80;82.10;;;;;;9177507;19;20022;-67
2023/04/13 05:05:42;;;;;;;3.45;2.13;;;7.80;82.00;;;;;;9173726;19;20026;-67
2023/04/13 05:08:55;;;;;;;4.10;1.80;;;7.80;82.20;;;;;;9173468;19;20018;-67
2023/04/13 05:12:03;;;;;;;4.25;1.52;;;7.80;82.50;;;;;;9142694;19;20141;-68
2023/04/13 05:15:09;;;;;;;9.70;1.70;;;7.80;82.10;;;;;;9159657;19;20029;-67
2023/04/13 05:18:16;;;;;;;3.75;1.67;;;7.70;81.90;;;;;;9172392;19;20538;-67
2023/04/13 05:21:20;;;;;;;7.97;1.95;;;7.70;82.00;;;;;;9169305;19;20019;-68
2023/04/13 05:24:35;;;;;;;5.18;2.20;;;7.70;82.40;;;;;;9168943;19;20010;-67
2023/04/13 05:27:44;;;;;;;2.38;1.75;;;7.70;82.30;;;;;;9175079;19;20018;-67
2023/04/13 05:30:51;;;;;;;2.20;1.67;;;7.70;82.30;;;;;;9178547;19;20014;-67
2023/04/13 05:33:55;;;;;;;4.57;2.03;;;7.70;82.40;;;;;;9178392;19;20034;-67
2023/04/13 05:37:02;;;;;;;6.05;1.85;;;7.70;82.60;;;;;;9178657;19;20029;-66
2023/04/13 05:40:13;;;;;;;4.95;1.90;;;7.70;82.70;;;;;;9178667;19;20046;-66
2023/04/13 05:43:21;;;;;;;8.30;1.70;;;7.70;82.30;;;;;;9179387;19;20014;-66
2023/04/13 05:46:28;;;;;;;3.65;1.85;;;7.80;82.40;;;;;;9178420;19;20023;-67
2023/04/13 05:49:37;;;;;;;3.25;1.60;;;7.80;82.30;;;;;;9177576;19;20006;-66
2023/04/13 05:52:42;;;;;;;7.03;1.77;;;7.70;82.30;;;;;;9176935;19;20015;-67
2023/04/13 05:55:50;;;;;;;5.50;1.60;;;7.80;82.20;;;;;;9176591;19;20022;-66
2023/04/13 05:58:54;;;;;;;4.22;1.90;;;7.80;81.90;;;;;;9177003;19;20017;-67
2023/04/13 06:02:03;;;;;;;6.60;1.40;;;7.80;82.40;;;;;;9176047;19;20018;-67
2023/04/13 06:05:08;;;;;;;3.90;1.80;;;7.90;82.50;;;;;;9179711;19;20014;-67
2023/04/13 06:08:15;;;;;;;8.57;1.52;;;7.90;82.20;;;;;;9171673;19;20014;-67
2023/04/13 06:11:21;;;;;;;2.42;1.50;;;7.80;82.00;;;;;;9171370;19;20023;-67
2023/04/13 06:14:27;;;;;;;2.28;1.70;;;7.90;82.40;;;;;;9167722;19;20018;-67
2023/04/13 06:17:31;;;;;;;;;;;7.90;82.50;;;;;;9166573;19;20014;-67
2023/04/13 06:20:37;;;;;;;7.75;2.33;;;8.00;82.20;;;;;;9169294;19;19923;-67
2023/04/13 06:23:41;;;;;;;;;;;8.00;82.10;;;;;;9164615;19;20112;-67
2023/04/13 06:26:58;;;;;;;6.30;2.35;;;8.00;82.00;;;;;;9164827;19;20279;-67
2023/04/13 06:30:02;;;;;;;11.75;2.40;;;8.00;82.10;;;;;;9167464;19;20011;-67
2023/04/13 06:33:11;;;;;;;3.70;2.40;;;8.00;82.20;;;;;;9164695;19;20022;-67
2023/04/13 06:36:15;;;;;;;12.40;3.88;;;8.00;82.00;;;;;;9170610;19;20032;-67
2023/04/13 06:39:21;;;;;;;11.52;2.97;;;8.10;82.10;;;;;;9173981;19;20021;-67
2023/04/13 06:42:35;;;;;;;8.95;3.30;;;8.20;82.20;;;;;;9174968;19;20078;-67
2023/04/13 06:46:01;;;;;;;12.20;3.47;;;8.00;81.80;;;;;;9177723;19;20038;-67
2023/04/13 06:49:08;;;;;;;7.15;3.00;;;8.40;82.10;;;;;;9175701;19;20019;-68
2023/04/13 06:52:17;;;;;;;7.13;3.53;;;8.50;81.80;;;;;;9176310;19;20018;-68
2023/04/13 06:55:21;;;;;;;11.10;3.97;;;8.60;81.90;;;;;;9176868;19;20021;-67
2023/04/13 06:58:30;;;;;;;7.13;3.30;;;8.60;82.10;;;;;;9177951;19;20027;-68
2023/04/13 07:01:37;;;;;;;10.77;3.25;;;8.70;82.40;;;;;;9177114;19;20057;-68
2023/04/13 07:04:44;;;;;;;9.82;3.47;;;8.80;81.80;;;;;;9176105;19;20017;-68
2023/04/13 07:07:48;;;;;;;10.68;4.60;;;8.80;82.20;;;;;;9177846;19;20021;-67
2023/04/13 07:10:56;;;;;;;8.65;3.65;;;8.90;82.50;;;;;;9175485;19;20412;-67
2023/04/13 07:14:11;;;;;;;11.13;4.05;;;9.00;82.40;;;;;;9167215;19;20018;-68
2023/04/13 07:17:18;;;;;;;10.73;3.33;;;9.10;82.50;;;;;;9174383;19;20363;-68
2023/04/13 07:20:22;;;;;;;12.65;3.95;;;9.20;82.30;;;;;;9176816;19;20364;-67
2023/04/13 07:23:29;;;;;;;10.43;3.90;;;9.40;82.20;;;;;;9176985;19;20034;-68
2023/04/13 07:26:34;;;;;;;9.77;3.40;;;9.50;82.40;;;;;;9176674;19;20039;-68
2023/04/13 07:29:42;;;;;;;7.28;2.85;;;9.50;82.00;;;;;;9175439;19;20014;-67
2023/04/13 07:32:51;;;;;;;8.13;2.80;;;9.50;82.20;;;;;;9174909;19;20018;-67
2023/04/13 07:35:58;;;;;;;9.10;2.72;;;9.50;81.90;;;;;;9174449;19;20014;-68
2023/04/13 07:39:07;;;;;;;9.60;3.17;;;9.50;82.10;;;;;;9174686;19;20022;-68
2023/04/13 07:42:15;;;;;;;10.95;2.92;;;9.50;82.60;;;;;;9174903;19;20015;-68
2023/04/13 07:45:26;;;;;;;10.30;2.85;;;9.50;82.10;;;;;;9173974;19;20026;-67
2023/04/13 07:48:32;;;;;;;4.63;2.35;;;9.50;81.90;;;;;;9176524;19;20357;-67
2023/04/13 07:51:42;;;;;;;8.43;3.92;;;9.40;82.20;;;;;;9174483;19;20014;-68
2023/04/13 07:54:50;;;;;;;10.20;3.00;;;9.40;82.10;;;;;;9172471;19;20014;-68
2023/04/13 07:57:54;;;;;;;11.13;3.58;;;9.40;81.80;;;;;;9170715;19;20007;-68
2023/04/13 08:01:02;;;;;;;9.00;3.63;;;9.40;82.00;;;;;;9175938;19;20022;-68
2023/04/13 08:04:06;;;;;;;8.85;4.30;;;9.40;82.10;;;;;;9174081;19;20030;-68
2023/04/13 08:07:14;;;;;;;9.25;3.53;;;9.50;82.10;;;;;;9173600;19;20023;-68
2023/04/13 08:10:21;;;;;;;16.70;3.42;;;9.50;82.30;;;;;;9174647;19;20081;-68
2023/04/13 08:13:30;;;;;;;9.60;3.50;;;9.50;82.10;;;;;;9165837;19;20022;-68
2023/04/13 08:16:36;;;;;;;6.22;3.30;;;9.50;82.10;;;;;;9170291;19;20018;-68
2023/04/13 08:19:45;;;;;;;6.68;3.47;;;9.50;82.50;;;;;;9173473;19;20857;-68
2023/04/13 08:22:51;;;;;;;4.10;2.60;;;9.60;82.40;;;;;;9173440;19;20018;-68
2023/04/13 08:26:01;;;;;;;5.70;2.00;;;9.60;82.70;;;;;;9173164;19;20803;-68
2023/04/13 08:29:05;;;;;;;1.90;1.70;;;9.60;82.70;;;;;;9174858;19;20014;-68
2023/04/13 08:32:13;;;;;;;3.45;1.52;;;9.60;82.30;;;;;;9172635;19;20022;-68
2023/04/13 08:35:17;;;;;;;4.53;1.40;;;9.70;82.50;;;;;;9172686;19;20011;-68
2023/04/13 08:38:23;;;;;;;2.00;1.40;;;9.70;82.50;;;;;;9169643;19;20022;-68
2023/04/13 08:41:28;;;;;;;4.10;1.90;;;9.70;82.30;;;;;;9172761;19;20373;-68
2023/04/13 08:44:39;;;;;;;2.95;1.60;;;9.70;82.10;;;;;;9172520;19;20034;-68
2023/04/13 08:47:46;;;;;;;3.20;1.75;;;9.80;82.20;;;;;;9171868;19;20022;-68
2023/04/13 08:50:57;;;;;;;4.65;1.67;;;9.80;81.80;;;;;;9172512;19;20022;-68
2023/04/13 08:54:03;;;;;;;2.45;1.70;;;9.80;82.10;;;;;;9171893;19;20044;-69
2023/04/13 08:57:16;;;;;;;4.57;1.80;;;9.80;81.60;;;;;;9170270;19;20026;-68
2023/04/13 09:00:22;;;;;;;6.50;2.00;;;9.90;82.00;;;;;;9172426;19;20017;-69
2023/04/13 09:03:36;;;;;;;3.08;1.48;;;10.00;82.20;;;;;;9173189;19;20014;-68
2023/04/13 09:06:43;;;;;;;3.13;1.90;;;10.00;82.00;;;;;;9172634;19;20018;-69
2023/04/13 09:09:52;;;;;;;2.00;1.50;;;10.10;82.50;;;;;;9178595;19;20356;-68
2023/04/13 09:12:56;;;;;;;3.80;1.92;;;10.00;82.40;;;;;;9179392;19;20090;-68
2023/04/13 09:16:03;;;;;;;2.90;1.40;;;10.20;82.80;;;;;;9174383;19;20018;-68
2023/04/13 09:19:30;;;;;;;4.88;1.85;;;10.30;82.70;;;;;;9179681;19;20015;-68
2023/04/13 09:22:36;;;;;;;4.03;1.67;;;10.40;82.70;;;;;;9180378;19;20111;-68
2023/04/13 09:25:40;;;;;;;;;;;10.50;82.80;;;;;;9181838;19;20066;-68
2023/04/13 09:28:50;;;;;;;8.05;1.70;;;10.70;82.50;;;;;;9177302;19;19919;-69
2023/04/13 09:31:54;;;;;;;3.92;1.85;;;10.90;82.20;;;;;;9180540;19;20490;-69
2023/04/13 09:35:04;;;;;;;4.22;1.77;;;11.10;82.10;;;;;;9178899;19;20506;-70
2023/04/13 09:38:10;;;;;;;12.02;2.00;;;11.20;82.90;;;;;;9178295;19;20139;-69
2023/04/13 09:41:16;;;;;;;5.22;1.70;;;11.40;83.20;;;;;;9180672;19;20026;-68
2023/04/13 09:44:23;;;;;;;;;;;11.50;83.10;;;;;;9181189;19;20017;-69
2023/04/13 09:47:37;;;;;;;7.97;1.42;;;11.50;83.10;;;;;;9179923;19;19923;-68
2023/04/13 09:50:43;;;;;;;12.98;1.50;;;11.70;83.80;;;;;;9179950;19;20014;-69
2023/04/13 09:53:49;;;;;;;7.45;1.30;;;11.60;84.30;;;;;;9179666;19;20010;-67
2023/04/13 09:56:55;;;;;;;5.53;1.75;;;12.00;85.00;;;;;;9179577;19;20026;-66
2023/04/13 10:00:05;;;;;;;8.57;2.72;;;12.10;84.30;;;;;;9179225;19;20018;-67
2023/04/13 10:03:17;;;;;;;7.18;1.52;;;12.20;83.70;;;;;;9179481;19;20048;-66
2023/04/13 10:06:26;;;;;;;13.60;1.90;;;12.20;83.80;;;;;;9179030;19;20014;-67
2023/04/13 10:09:30;;;;;;;4.63;1.30;;;12.20;83.20;;;;;;9171106;19;20748;-67
2023/04/13 10:12:37;;;;;;;8.73;1.38;;;12.30;83.50;;;;;;9172418;19;20430;-68
2023/04/13 10:16:01;;;;;;;10.48;1.63;;;12.20;83.40;;;;;;9167242;19;20018;-67
2023/04/13 10:19:13;;;;;;;2.72;1.23;;;12.10;83.30;;;;;;9174978;19;20057;-66
2023/04/13 10:22:22;;;;;;;12.52;1.90;;;12.10;83.20;;;;;;9173492;19;20414;-67
2023/04/13 10:25:28;;;;;;;9.98;1.75;;;12.00;82.80;;;;;;9178985;19;20018;-67
2023/04/13 10:28:43;;;;;;;6.97;2.22;;;12.00;83.20;;;;;;9178625;19;20011;-67
2023/04/13 10:31:52;;;;;;;14.07;1.95;;;12.00;82.60;;;;;;9179218;19;20022;-66
2023/04/13 10:34:56;;;;;;;12.07;1.85;;;12.00;82.80;;;;;;9178081;19;20344;-67
2023/04/13 10:38:04;;;;;;;7.88;2.28;;;12.10;82.60;;;;;;9176618;19;20022;-67
2023/04/13 10:41:08;;;;;;;8.02;1.73;;;12.30;82.40;;;;;;9178717;19;20022;-67
2023/04/13 10:44:14;;;;;;;9.65;1.85;;;12.30;82.80;;;;;;9176728;19;20018;-67
2023/04/13 10:47:19;;;;;;;;;;;12.30;82.60;;;;;;9178977;19;20047;-66
2023/04/13 10:50:26;;;;;;;6.30;1.40;;;12.30;82.40;;;;;;9177916;19;19930;-65
2023/04/13 10:53:33;;;;;;;10.90;1.90;;;12.30;83.60;;;;;;9178924;19;20010;-66
2023/04/13 10:56:39;;;;;;;10.98;2.20;;;12.40;83.40;;;;;;9178134;19;20015;-66
2023/04/13 10:59:44;;;;;;;;;;;12.50;83.30;;;;;;9177879;19;20491;-66
2023/04/13 11:03:05;;;;;;;9.15;2.55;;;12.60;83.30;;;;;;9173300;19;19929;-66
2023/04/13 11:06:09;;;;;;;12.77;2.00;;;12.70;82.90;;;;;;9175749;19;20118;-66
2023/04/13 11:09:23;;;;;;;11.30;2.15;;;12.90;83.40;;;;;;9177070;19;20014;-66
2023/04/13 11:12:27;;;;;;;13.40;2.05;;;13.00;83.00;;;;;;9175070;19;20007;-66
2023/04/13 11:15:33;;;;;;;7.43;2.20;;;13.10;83.10;;;;;;9171367;19;20490;-67
2023/04/13 11:18:37;;;;;;;8.05;1.50;;;13.30;83.10;;;;;;9171232;19;20471;-67
2023/04/13 11:21:44;;;;;;;9.05;2.00;;;13.40;82.00;;;;;;9173843;19;20356;-66
2023/04/13 11:24:51;;;;;;;8.75;1.60;;;13.50;81.20;;;;;;9176935;19;20022;-66
2023/04/13 11:27:59;;;;;;;9.95;1.55;;;13.60;80.70;;;;;;9177927;19;20018;-67
2023/04/13 11:31:03;;;;;;;17.02;3.95;;;13.60;80.20;;;;;;9176636;19;20345;-69
2023/04/13 11:34:10;;;;;;;2.72;1.10;;;13.80;80.60;;;;;;9176886;19;20018;-66
2023/04/13 11:37:14;;;;;;;12.65;1.92;;;13.90;80.40;;;;;;9175564;19;20010;-67
2023/04/13 11:40:26;;;;;;;12.52;2.67;;;13.90;79.70;;;;;;9176650;19;20014;-68
2023/04/13 11:43:30;;;;;;;8.77;1.60;;;13.90;79.10;;;;;;9176986;19;20021;-67
2023/04/13 11:46:37;;;;;;;10.30;3.20;;;13.90;79.60;;;;;;9175965;19;20011;-66
2023/04/13 11:49:46;;;;;;;8.57;1.63;;;14.00;79.20;;;;;;9176288;19;20025;-67
2023/04/13 11:52:55;;;;;;;11.32;1.90;;;14.10;79.20;;;;;;9175955;19;20022;-65
2023/04/13 11:56:01;;;;;;;12.20;1.83;;;14.20;79.10;;;;;;9174138;19;20019;-66
2023/04/13 11:59:09;;;;;;;10.18;2.70;;;14.30;79.30;;;;;;9171596;19;20018;-66
2023/04/13 12:02:13;;;;;;;6.32;1.40;;;14.40;79.70;;;;;;9175696;19;20018;-67
2023/04/13 12:05:30;;;;;;;5.57;1.45;;;14.50;80.60;;;;;;9175636;19;20049;-67
2023/04/13 12:08:36;;;;;;;3.30;0.98;;;14.60;79.20;;;;;;9175504;19;20011;-67
2023/04/13 12:11:45;;;;;;;12.88;2.40;;;14.80;77.40;;;;;;9174824;19;20033;-66
2023/04/13 12:14:56;;;;;;;9.27;1.50;;;14.90;76.90;;;;;;9169392;19;20021;-66
2023/04/13 12:18:21;;;;;;;15.43;1.88;;;15.00;76.70;;;;;;9173025;19;20010;-66
2023/04/13 12:21:32;;;;;;;7.90;1.42;;;14.90;77.00;;;;;;9174184;19;20044;-66
2023/04/13 12:24:39;;;;;;;15.63;1.80;;;15.00;76.90;;;;;;9174776;19;20014;-66
2023/04/13 12:27:47;;;;;;;13.55;2.10;;;15.00;77.40;;;;;;9175277;19;20519;-66
2023/04/13 12:30:53;;;;;;;10.07;1.80;;;15.00;76.70;;;;;;9173813;19;20026;-66
2023/04/13 12:33:56;;;;;;;;;;;14.90;77.20;;;;;;9175257;19;20024;-66
2023/04/13 12:37:02;;;;;;;6.55;1.50;;;14.80;77.30;;;;;;9174061;19;19926;-66
2023/04/13 12:40:11;;;;;;;8.35;1.63;;;14.70;77.80;;;;;;9174510;19;20015;-66
2023/04/13 12:43:18;;;;;;;9.57;1.92;;;14.80;78.30;;;;;;9179475;19;20021;-66
2023/04/13 12:46:23;;;;;;;13.65;2.28;;;14.70;78.80;;;;;;9182647;19;20022;-67
2023/04/13 12:49:29;;;;;;;9.88;1.85;;;14.80;81.10;;;;;;9180358;19;20018;-66
2023/04/13 12:52:33;;;;;;;;;;;14.80;76.20;;;;;;9183091;19;20014;-66
2023/04/13 12:55:39;;;;;;;5.60;1.35;;;14.90;76.40;;;;;;9180428;19;19926;-66
2023/04/13 12:58:45;;;;;;;;;;;15.00;76.10;;;;;;9180251;19;20014;-66
2023/04/13 13:01:51;;;;;;;7.88;1.70;;;15.00;76.20;;;;;;9180622;19;20264;-69
2023/04/13 13:04:56;;;;;;;;;;;15.10;76.30;;;;;;9183176;19;20029;-70
2023/04/13 13:08:02;;;;;;;7.20;1.63;;;15.10;74.10;;;;;;9180993;19;19919;-70
2023/04/13 13:11:07;;;;;;;10.57;1.70;;;15.20;75.00;;;;;;9174271;19;20441;-66
2023/04/13 13:14:15;;;;;;;7.60;1.52;;;15.20;75.90;;;;;;9166633;19;20593;-68
2023/04/13 13:17:19;;;;;;;7.60;1.80;;;15.20;74.80;;;;;;9173936;19;20022;-68
2023/04/13 13:20:25;;;;;;;18.60;1.67;;;15.10;76.90;;;;;;9172515;19;20672;-67
2023/04/13 13:23:28;;;;;;;;;;;15.10;75.90;;;;;;9174336;19;20025;-68
2023/04/13 13:26:34;;;;;;;16.80;1.92;;;15.00;75.60;;;;;;9177432;19;19926;-66
2023/04/13 13:30:02;;;;;;;6.55;1.45;;;14.90;75.90;;;;;;9179413;19;20341;-66
2023/04/13 13:33:08;;;;;;;7.97;1.65;;;14.80;76.60;;;;;;9179533;19;20575;-66
2023/04/13 13:36:14;;;;;;;10.27;1.75;;;14.70;76.50;;;;;;9177749;19;20554;-65
2023/04/13 13:39:21;;;;;;;6.70;2.15;;;14.60;74.70;;;;;;9176685;19;20019;-67
2023/04/13 13:42:25;;;;;;;6.65;1.88;;;14.50;73.70;;;;;;9177947;19;20014;-66
2023/04/13 13:45:37;;;;;;;9.48;1.60;;;14.40;75.50;;;;;;9179394;19;20019;-66
2023/04/13 13:48:41;;;;;;;10.20;1.85;;;14.40;75.50;;;;;;9178002;19;20020;-67
2023/04/13 13:52:08;;;;;;;12.90;1.85;;;14.40;75.50;;;;;;9177691;19;20024;-66
2023/04/13 13:55:21;;;;;;;6.78;1.30;;;14.50;75.40;;;;;;9175054;19;20010;-66
2023/04/13 13:58:27;;;;;;;15.07;2.28;;;14.40;77.10;;;;;;9173020;19;20007;-67
2023/04/13 14:01:33;;;;;;;;;;;14.40;77.40;;;;;;9177805;19;20370;-68
2023/04/13 14:04:39;;;;;;;10.00;1.65;;;14.20;74.50;;;;;;9177308;19;19918;-66
2023/04/13 14:07:44;;;;;;;12.23;2.10;;;14.30;74.60;;;;;;9177516;19;20022;-66
2023/04/13 14:10:50;;;;;;;16.80;2.08;;;14.20;77.50;;;;;;9177522;19;20018;-65
2023/04/13 14:13:54;;;;;;;;;;;14.10;77.00;;;;;;9170584;19;20046;-65
2023/04/13 14:17:02;;;;;;;6.90;1.63;;;14.10;77.70;;;;;;9176949;19;20224;-66
2023/04/13 14:20:09;;;;;;;12.27;2.05;;;14.20;77.50;;;;;;9177248;19;20017;-66
2023/04/13 14:23:15;;;;;;;11.70;1.92;;;14.10;77.40;;;;;;9176253;19;20356;-66
2023/04/13 14:26:19;;;;;;;15.63;2.35;;;14.10;76.70;;;;;;9176693;19;20019;-65
2023/04/13 14:29:25;;;;;;;12.13;1.80;;;14.10;75.10;;;;;;9176369;19;20019;-66
2023/04/13 14:32:31;;;;;;;9.77;1.45;;;14.10;75.20;;;;;;9173751;19;20048;-66
2023/04/13 14:35:39;;;;;;;7.63;1.63;;;14.00;74.60;;;;;;9177461;19;20041;-66
2023/04/13 14:38:43;;;;;;;5.88;1.35;;;14.00;74.30;;;;;;9175807;19;20411;-65
2023/04/13 14:41:49;;;;;;;11.95;1.95;;;14.00;74.80;;;;;;9177748;19;20392;-66
2023/04/13 14:44:53;;;;;;;;;;;14.00;74.70;;;;;;9179609;19;20049;-65
2023/04/13 14:48:01;;;;;;;5.70;1.38;;;14.00;74.50;;;;;;9176544;19;19923;-66
2023/04/13 14:51:05;;;;;;;11.68;2.78;;;14.10;75.30;;;;;;9172751;19;20018;-68
2023/04/13 14:54:11;;;;;;;9.02;1.83;;;14.10;74.60;;;;;;9170246;19;20710;-66
2023/04/13 14:57:16;;;;;;;;;;;14.10;74.00;;;;;;9171791;19;20018;-69
2023/04/13 15:00:37;;;;;;;8.60;1.70;;;14.20;74.10;;;;;;9170601;19;19918;-69
2023/04/13 15:03:43;;;;;;;16.15;2.10;;;14.30;74.40;;;;;;9168797;19;20025;-65
2023/04/13 15:06:52;;;;;;;9.68;2.35;;;14.30;74.30;;;;;;9169833;19;20493;-65
2023/04/13 15:09:57;;;;;;;5.93;1.73;;;14.20;73.90;;;;;;9170326;19;20356;-66
2023/04/13 15:13:05;;;;;;;13.35;2.63;;;14.30;75.20;;;;;;9168201;19;20041;-66
2023/04/13 15:16:09;;;;;;;14.30;1.65;;;14.30;75.10;;;;;;9164294;19;20026;-66
2023/04/13 15:19:17;;;;;;;8.75;1.88;;;14.30;75.20;;;;;;9166953;19;20471;-65
2023/04/13 15:22:21;;;;;;;8.57;2.08;;;14.20;75.50;;;;;;9169481;19;20027;-65
2023/04/13 15:25:27;;;;;;;7.57;1.45;;;14.20;75.70;;;;;;9168771;19;20018;-66
2023/04/13 15:28:31;;;;;;;8.15;1.42;;;14.20;76.30;;;;;;9169060;19;20018;-65
2023/04/13 15:31:38;;;;;;;9.65;1.92;;;14.30;76.20;;;;;;9169900;19;20018;-65
2023/04/13 15:34:44;;;;;;;5.53;1.27;;;14.30;74.30;;;;;;9169966;19;20018;-65
2023/04/13 15:37:50;;;;;;;7.13;1.55;;;14.40;73.50;;;;;;9167866;19;20141;-65
2023/04/13 15:40:54;;;;;;;12.27;1.90;;;14.40;72.40;;;;;;9168873;19;20022;-66
2023/04/13 15:44:02;;;;;;;13.60;1.98;;;14.30;72.00;;;;;;9168272;19;20006;-65
2023/04/13 15:47:08;;;;;;;14.40;1.60;;;14.40;72.00;;;;;;9166162;19;20410;-66
2023/04/13 15:50:17;;;;;;;12.13;2.85;;;14.40;71.40;;;;;;9175538;19;20379;-65
2023/04/13 15:53:21;;;;;;;9.00;1.73;;;14.40;71.50;;;;;;9173969;19;20078;-66
2023/04/13 15:56:29;;;;;;;7.70;1.58;;;14.40;72.00;;;;;;9177015;19;20019;-65
2023/04/13 15:59:33;;;;;;;8.68;1.63;;;14.40;71.80;;;;;;9172331;19;20026;-66
2023/04/13 16:02:39;;;;;;;7.25;1.35;;;14.40;71.80;;;;;;9175983;19;20018;-66
2023/04/13 16:05:45;;;;;;;9.95;1.55;;;14.40;71.50;;;;;;9175826;19;20017;-66
2023/04/13 16:08:53;;;;;;;3.95;1.67;;;14.30;71.00;;;;;;9166298;19;20503;-65
2023/04/13 16:11:57;;;;;;;7.80;1.38;;;14.30;70.80;;;;;;9166332;19;20510;-66
2023/04/13 16:15:03;;;;;;;6.07;1.40;;;14.30;70.60;;;;;;9163275;19;20056;-65
2023/04/13 16:18:08;;;;;;;8.13;1.40;;;14.30;70.60;;;;;;9164803;19;20364;-66
2023/04/13 16:21:18;;;;;;;7.45;1.05;;;14.20;70.30;;;;;;9165759;19;20384;-66
2023/04/13 16:24:22;;;;;;;7.55;1.20;;;14.20;70.90;;;;;;9167503;19;20071;-66
2023/04/13 16:27:28;;;;;;;7.32;1.27;;;14.10;70.40;;;;;;9168298;19;20723;-65